sensor_id;sensor_type;location;lat;lon;timestamp;temperature;humidity
20102;DHT22;10210;52.284;9.892;2022-10-01T00:00:59;14.70;99.90
20102;DHT22;10210;52.284;9.892;2022-10-01T00:03:26;14.60;99.90
20102;DHT22;10210;52.284;9.892;2022-10-01T00:06:01;14.70;99.90
20102;DHT22;10210;52.284;9.892;2022-10-01T00:08:31;14.70;99.90
20102;DHT22;10210;52.284;9.892;2022-10-01T00:10:58;14.60;99.90
20102;DHT22;10210;52.284;9.892;2022-10-01T00:13:27;14.60;99.90
20102;DHT22;10210;52.284;9.892;2022-10-01T00:15:55;14.50;99.90
20102;DHT22;10210;52.284;9.892;2022-10-01T00:18:21;14.50;99.90
20102;DHT22;10210;52.284;9.892;2022-10-01T00:20:47;14.40;99.90
20102;DHT22;10210;52.284;9.892;2022-10-01T00:23:13;14.40;99.90
20102;DHT22;10210;52.284;9.892;2022-10-01T00:25:40;14.40;99.90
20102;DHT22;10210;52.284;9.892;2022-10-01T00:28:06;14.40;99.90
20102;DHT22;10210;52.284;9.892;2022-10-01T00:30:32;14.40;99.90
20102;DHT22;10210;52.284;9.892;2022-10-01T00:32:58;14.40;99.90
20102;DHT22;10210;52.284;9.892;2022-10-01T00:35:24;14.40;99.90
20102;DHT22;10210;52.284;9.892;2022-10-01T00:37:50;14.40;99.90
20102;DHT22;10210;52.284;9.892;2022-10-01T00:40:18;14.40;99.90
20102;DHT22;10210;52.284;9.892;2022-10-01T00:42:46;14.40;99.90
20102;DHT22;10210;52.284;9.892;2022-10-01T00:45:13;14.50;99.90
20102;DHT22;10210;52.284;9.892;2022-10-01T00:47:46;14.50;99.90
20102;DHT22;10210;52.284;9.892;2022-10-01T00:50:29;14.40;99.90
20102;DHT22;10210;52.284;9.892;2022-10-01T00:53:02;14.40;99.90
20102;DHT22;10210;52.284;9.892;2022-10-01T00:55:35;14.40;99.90
20102;DHT22;10210;52.284;9.892;2022-10-01T00:58:04;14.50;99.90
20102;DHT22;10210;52.284;9.892;2022-10-01T01:00:32;14.40;99.90
20102;DHT22;10210;52.284;9.892;2022-10-01T01:02:58;14.40;99.90
20102;DHT22;10210;52.284;9.892;2022-10-01T01:05:24;14.40;99.90
20102;DHT22;10210;52.284;9.892;2022-10-01T01:07:51;14.40;99.90
20102;DHT22;10210;52.284;9.892;2022-10-01T01:10:41;14.40;99.90
20102;DHT22;10210;52.284;9.892;2022-10-01T01:13:28;14.40;99.90
20102;DHT22;10210;52.284;9.892;2022-10-01T01:18:51;14.20;99.90
20102;DHT22;10210;52.284;9.892;2022-10-01T01:21:39;14.20;99.90
20102;DHT22;10210;52.284;9.892;2022-10-01T01:27:14;14.20;99.90
20102;DHT22;10210;52.284;9.892;2022-10-01T01:30:12;14.20;99.90
20102;DHT22;10210;52.284;9.892;2022-10-01T01:35:32;14.20;99.90
20102;DHT22;10210;52.284;9.892;2022-10-01T01:38:04;14.20;99.90
20102;DHT22;10210;52.284;9.892;2022-10-01T01:40:35;14.20;99.90
20102;DHT22;10210;52.284;9.892;2022-10-01T01:43:07;14.10;99.90
20102;DHT22;10210;52.284;9.892;2022-10-01T01:45:38;14.20;99.90
20102;DHT22;10210;52.284;9.892;2022-10-01T01:48:06;14.20;99.90
20102;DHT22;10210;52.284;9.892;2022-10-01T01:50:42;14.20;99.90
20102;DHT22;10210;52.284;9.892;2022-10-01T01:53:14;14.20;99.90
20102;DHT22;10210;52.284;9.892;2022-10-01T01:55:40;14.20;99.90
20102;DHT22;10210;52.284;9.892;2022-10-01T01:58:09;14.20;99.90
20102;DHT22;10210;52.284;9.892;2022-10-01T02:00:35;14.20;99.90
20102;DHT22;10210;52.284;9.892;2022-10-01T02:03:00;14.20;99.90
20102;DHT22;10210;52.284;9.892;2022-10-01T02:05:31;14.20;99.90
20102;DHT22;10210;52.284;9.892;2022-10-01T02:08:20;14.20;99.90
20102;DHT22;10210;52.284;9.892;2022-10-01T02:11:00;14.10;99.90
20102;DHT22;10210;52.284;9.892;2022-10-01T02:16:56;14.10;99.90
20102;DHT22;10210;52.284;9.892;2022-10-01T02:19:35;14.10;99.90
20102;DHT22;10210;52.284;9.892;2022-10-01T02:22:10;14.10;99.90
20102;DHT22;10210;52.284;9.892;2022-10-01T02:24:49;14.10;99.90
20102;DHT22;10210;52.284;9.892;2022-10-01T02:27:43;14.10;99.90
20102;DHT22;10210;52.284;9.892;2022-10-01T02:30:16;14.00;99.90
20102;DHT22;10210;52.284;9.892;2022-10-01T02:32:44;14.10;99.90
20102;DHT22;10210;52.284;9.892;2022-10-01T02:35:14;14.00;99.90
20102;DHT22;10210;52.284;9.892;2022-10-01T02:37:43;14.00;99.90
20102;DHT22;10210;52.284;9.892;2022-10-01T02:40:15;14.00;99.90
20102;DHT22;10210;52.284;9.892;2022-10-01T02:42:51;14.00;99.90
20102;DHT22;10210;52.284;9.892;2022-10-01T02:45:22;14.00;99.90
20102;DHT22;10210;52.284;9.892;2022-10-01T02:47:54;14.10;99.90
20102;DHT22;10210;52.284;9.892;2022-10-01T02:50:29;14.00;99.90
20102;DHT22;10210;52.284;9.892;2022-10-01T02:53:07;14.00;99.90
20102;DHT22;10210;52.284;9.892;2022-10-01T02:55:37;14.10;99.90
20102;DHT22;10210;52.284;9.892;2022-10-01T02:58:06;14.00;99.90
20102;DHT22;10210;52.284;9.892;2022-10-01T03:00:33;14.10;99.90
20102;DHT22;10210;52.284;9.892;2022-10-01T03:02:59;14.10;99.90
20102;DHT22;10210;52.284;9.892;2022-10-01T03:05:25;14.10;99.90
20102;DHT22;10210;52.284;9.892;2022-10-01T03:07:50;14.10;99.90
20102;DHT22;10210;52.284;9.892;2022-10-01T03:10:17;14.10;99.90
20102;DHT22;10210;52.284;9.892;2022-10-01T03:12:43;14.10;99.90
20102;DHT22;10210;52.284;9.892;2022-10-01T03:15:14;14.10;99.90
20102;DHT22;10210;52.284;9.892;2022-10-01T03:17:41;14.10;99.90
20102;DHT22;10210;52.284;9.892;2022-10-01T03:20:08;14.10;99.90
20102;DHT22;10210;52.284;9.892;2022-10-01T03:22:34;14.20;99.90
20102;DHT22;10210;52.284;9.892;2022-10-01T03:25:00;14.10;99.90
20102;DHT22;10210;52.284;9.892;2022-10-01T03:27:25;14.20;99.90
20102;DHT22;10210;52.284;9.892;2022-10-01T03:29:51;14.20;99.90
20102;DHT22;10210;52.284;9.892;2022-10-01T03:32:17;14.20;99.90
20102;DHT22;10210;52.284;9.892;2022-10-01T03:34:43;14.30;99.90
20102;DHT22;10210;52.284;9.892;2022-10-01T03:37:09;14.30;99.90
20102;DHT22;10210;52.284;9.892;2022-10-01T03:39:35;14.30;99.90
20102;DHT22;10210;52.284;9.892;2022-10-01T03:42:01;14.30;99.90
20102;DHT22;10210;52.284;9.892;2022-10-01T03:44:28;14.20;99.90
20102;DHT22;10210;52.284;9.892;2022-10-01T03:46:54;14.20;99.90
20102;DHT22;10210;52.284;9.892;2022-10-01T03:49:19;14.20;99.90
20102;DHT22;10210;52.284;9.892;2022-10-01T03:51:45;14.30;99.90
20102;DHT22;10210;52.284;9.892;2022-10-01T03:54:11;14.30;99.90
20102;DHT22;10210;52.284;9.892;2022-10-01T03:56:40;14.30;99.90
20102;DHT22;10210;52.284;9.892;2022-10-01T03:59:10;14.30;99.90
20102;DHT22;10210;52.284;9.892;2022-10-01T04:01:36;14.30;99.90
20102;DHT22;10210;52.284;9.892;2022-10-01T04:04:04;14.30;99.90
20102;DHT22;10210;52.284;9.892;2022-10-01T04:06:31;14.30;99.90
20102;DHT22;10210;52.284;9.892;2022-10-01T04:08:56;14.30;99.90
20102;DHT22;10210;52.284;9.892;2022-10-01T04:11:22;14.30;99.90
20102;DHT22;10210;52.284;9.892;2022-10-01T04:13:49;14.30;99.90
20102;DHT22;10210;52.284;9.892;2022-10-01T04:16:15;14.30;99.90
20102;DHT22;10210;52.284;9.892;2022-10-01T04:18:41;14.40;99.90
20102;DHT22;10210;52.284;9.892;2022-10-01T04:21:07;14.40;99.90
20102;DHT22;10210;52.284;9.892;2022-10-01T04:23:33;14.40;99.90
20102;DHT22;10210;52.284;9.892;2022-10-01T04:26:00;14.30;99.90
20102;DHT22;10210;52.284;9.892;2022-10-01T04:28:27;14.40;99.90
20102;DHT22;10210;52.284;9.892;2022-10-01T04:30:53;14.40;99.90
20102;DHT22;10210;52.284;9.892;2022-10-01T04:33:39;14.30;99.90
20102;DHT22;10210;52.284;9.892;2022-10-01T04:36:06;14.40;99.90
20102;DHT22;10210;52.284;9.892;2022-10-01T04:38:32;14.30;99.90
20102;DHT22;10210;52.284;9.892;2022-10-01T04:40:58;14.20;99.90
20102;DHT22;10210;52.284;9.892;2022-10-01T04:43:24;14.30;99.90
20102;DHT22;10210;52.284;9.892;2022-10-01T04:45:49;14.20;99.90
20102;DHT22;10210;52.284;9.892;2022-10-01T04:48:15;14.20;99.90
20102;DHT22;10210;52.284;9.892;2022-10-01T04:50:40;14.20;99.90
20102;DHT22;10210;52.284;9.892;2022-10-01T04:53:06;14.10;99.90
20102;DHT22;10210;52.284;9.892;2022-10-01T04:55:32;14.10;99.90
20102;DHT22;10210;52.284;9.892;2022-10-01T04:57:57;14.00;99.90
20102;DHT22;10210;52.284;9.892;2022-10-01T05:00:23;14.00;99.90
20102;DHT22;10210;52.284;9.892;2022-10-01T05:02:51;13.90;99.90
20102;DHT22;10210;52.284;9.892;2022-10-01T05:05:20;13.90;99.90
20102;DHT22;10210;52.284;9.892;2022-10-01T05:07:48;13.90;99.90
20102;DHT22;10210;52.284;9.892;2022-10-01T05:10:19;13.80;99.90
20102;DHT22;10210;52.284;9.892;2022-10-01T05:12:47;13.80;99.90
20102;DHT22;10210;52.284;9.892;2022-10-01T05:15:15;13.70;99.90
20102;DHT22;10210;52.284;9.892;2022-10-01T05:17:41;13.70;99.90
20102;DHT22;10210;52.284;9.892;2022-10-01T05:20:16;13.70;99.90
20102;DHT22;10210;52.284;9.892;2022-10-01T05:22:44;13.60;99.90
20102;DHT22;10210;52.284;9.892;2022-10-01T05:25:11;13.50;99.90
20102;DHT22;10210;52.284;9.892;2022-10-01T05:27:37;13.50;99.90
20102;DHT22;10210;52.284;9.892;2022-10-01T05:30:06;13.40;99.90
20102;DHT22;10210;52.284;9.892;2022-10-01T05:32:34;13.40;99.90
20102;DHT22;10210;52.284;9.892;2022-10-01T05:35:01;13.30;99.90
20102;DHT22;10210;52.284;9.892;2022-10-01T05:37:27;13.30;99.90
20102;DHT22;10210;52.284;9.892;2022-10-01T05:39:52;13.20;99.90
20102;DHT22;10210;52.284;9.892;2022-10-01T05:42:18;13.20;99.90
20102;DHT22;10210;52.284;9.892;2022-10-01T05:44:44;13.20;99.90
20102;DHT22;10210;52.284;9.892;2022-10-01T05:47:15;13.10;99.90
20102;DHT22;10210;52.284;9.892;2022-10-01T05:49:41;13.10;99.90
20102;DHT22;10210;52.284;9.892;2022-10-01T05:52:12;13.10;99.90
20102;DHT22;10210;52.284;9.892;2022-10-01T05:54:39;13.00;99.90
20102;DHT22;10210;52.284;9.892;2022-10-01T05:57:06;13.10;99.90
20102;DHT22;10210;52.284;9.892;2022-10-01T05:59:33;13.10;99.90
20102;DHT22;10210;52.284;9.892;2022-10-01T06:01:59;13.10;99.90
20102;DHT22;10210;52.284;9.892;2022-10-01T06:04:25;13.00;99.90
20102;DHT22;10210;52.284;9.892;2022-10-01T06:06:52;13.00;99.90
20102;DHT22;10210;52.284;9.892;2022-10-01T06:09:19;13.00;99.90
20102;DHT22;10210;52.284;9.892;2022-10-01T06:11:45;13.10;99.90
20102;DHT22;10210;52.284;9.892;2022-10-01T06:14:13;13.00;99.90
20102;DHT22;10210;52.284;9.892;2022-10-01T06:16:39;13.00;99.90
20102;DHT22;10210;52.284;9.892;2022-10-01T06:19:05;13.00;99.90
20102;DHT22;10210;52.284;9.892;2022-10-01T06:21:31;13.00;99.90
20102;DHT22;10210;52.284;9.892;2022-10-01T06:23:57;13.00;99.90
20102;DHT22;10210;52.284;9.892;2022-10-01T06:26:22;13.00;99.90
20102;DHT22;10210;52.284;9.892;2022-10-01T06:28:49;13.00;99.90
20102;DHT22;10210;52.284;9.892;2022-10-01T06:31:17;13.00;99.90
20102;DHT22;10210;52.284;9.892;2022-10-01T06:33:43;13.00;99.90
20102;DHT22;10210;52.284;9.892;2022-10-01T06:36:09;13.00;99.90
20102;DHT22;10210;52.284;9.892;2022-10-01T06:38:34;13.00;99.90
20102;DHT22;10210;52.284;9.892;2022-10-01T06:41:01;13.00;99.90
20102;DHT22;10210;52.284;9.892;2022-10-01T06:43:30;13.00;99.90
20102;DHT22;10210;52.284;9.892;2022-10-01T06:46:00;13.00;99.90
20102;DHT22;10210;52.284;9.892;2022-10-01T06:48:27;13.00;99.90
20102;DHT22;10210;52.284;9.892;2022-10-01T06:50:56;13.00;99.90
20102;DHT22;10210;52.284;9.892;2022-10-01T06:53:22;13.00;99.90
20102;DHT22;10210;52.284;9.892;2022-10-01T06:55:48;13.00;99.90
20102;DHT22;10210;52.284;9.892;2022-10-01T06:58:19;13.00;99.90
20102;DHT22;10210;52.284;9.892;2022-10-01T07:00:47;12.90;99.90
20102;DHT22;10210;52.284;9.892;2022-10-01T07:03:18;12.90;99.90
20102;DHT22;10210;52.284;9.892;2022-10-01T07:05:48;13.00;99.90
20102;DHT22;10210;52.284;9.892;2022-10-01T07:08:14;12.90;99.90
20102;DHT22;10210;52.284;9.892;2022-10-01T07:10:40;12.90;99.90
20102;DHT22;10210;52.284;9.892;2022-10-01T07:13:13;12.90;99.90
20102;DHT22;10210;52.284;9.892;2022-10-01T07:15:41;12.90;99.90
20102;DHT22;10210;52.284;9.892;2022-10-01T07:18:08;13.00;99.90
20102;DHT22;10210;52.284;9.892;2022-10-01T07:20:35;13.00;99.90
20102;DHT22;10210;52.284;9.892;2022-10-01T07:23:05;13.00;99.90
20102;DHT22;10210;52.284;9.892;2022-10-01T07:25:32;13.00;99.90
20102;DHT22;10210;52.284;9.892;2022-10-01T07:28:01;13.00;99.90
20102;DHT22;10210;52.284;9.892;2022-10-01T07:30:29;13.00;99.90
20102;DHT22;10210;52.284;9.892;2022-10-01T07:32:56;13.00;99.90
20102;DHT22;10210;52.284;9.892;2022-10-01T07:35:22;13.00;99.90
20102;DHT22;10210;52.284;9.892;2022-10-01T07:37:48;13.00;99.90
20102;DHT22;10210;52.284;9.892;2022-10-01T07:40:16;13.00;99.90
20102;DHT22;10210;52.284;9.892;2022-10-01T07:42:49;13.00;99.90
20102;DHT22;10210;52.284;9.892;2022-10-01T07:45:18;13.00;99.90
20102;DHT22;10210;52.284;9.892;2022-10-01T07:47:51;13.00;99.90
20102;DHT22;10210;52.284;9.892;2022-10-01T07:50:22;13.10;99.90
20102;DHT22;10210;52.284;9.892;2022-10-01T07:52:52;13.10;99.90
20102;DHT22;10210;52.284;9.892;2022-10-01T07:55:21;13.00;99.90
20102;DHT22;10210;52.284;9.892;2022-10-01T07:57:56;13.00;99.90
20102;DHT22;10210;52.284;9.892;2022-10-01T08:00:24;13.00;99.90
20102;DHT22;10210;52.284;9.892;2022-10-01T08:02:52;13.00;99.90
20102;DHT22;10210;52.284;9.892;2022-10-01T08:05:26;13.00;99.90
20102;DHT22;10210;52.284;9.892;2022-10-01T08:07:58;13.00;99.90
20102;DHT22;10210;52.284;9.892;2022-10-01T08:10:29;13.00;99.90
20102;DHT22;10210;52.284;9.892;2022-10-01T08:13:04;13.10;99.90
20102;DHT22;10210;52.284;9.892;2022-10-01T08:15:33;13.10;99.90
20102;DHT22;10210;52.284;9.892;2022-10-01T08:18:03;13.10;99.90
20102;DHT22;10210;52.284;9.892;2022-10-01T08:20:30;13.20;99.90
20102;DHT22;10210;52.284;9.892;2022-10-01T08:23:04;13.20;99.90
20102;DHT22;10210;52.284;9.892;2022-10-01T08:25:31;13.20;99.90
20102;DHT22;10210;52.284;9.892;2022-10-01T08:27:57;13.20;99.90
20102;DHT22;10210;52.284;9.892;2022-10-01T08:30:25;13.20;99.90
20102;DHT22;10210;52.284;9.892;2022-10-01T08:32:58;13.30;99.90
20102;DHT22;10210;52.284;9.892;2022-10-01T08:35:26;13.30;99.90
20102;DHT22;10210;52.284;9.892;2022-10-01T08:37:52;13.30;99.90
20102;DHT22;10210;52.284;9.892;2022-10-01T08:40:21;13.40;99.90
20102;DHT22;10210;52.284;9.892;2022-10-01T08:42:56;13.40;99.90
20102;DHT22;10210;52.284;9.892;2022-10-01T08:45:29;13.40;99.90
20102;DHT22;10210;52.284;9.892;2022-10-01T08:56:58;13.50;99.90
20102;DHT22;10210;52.284;9.892;2022-10-01T09:02:41;13.60;99.90
20102;DHT22;10210;52.284;9.892;2022-10-01T09:05:50;13.60;99.90
20102;DHT22;10210;52.284;9.892;2022-10-01T09:09:22;13.60;99.90
20102;DHT22;10210;52.284;9.892;2022-10-01T09:18:05;13.60;99.90
20102;DHT22;10210;52.284;9.892;2022-10-01T09:20:57;13.60;99.90
20102;DHT22;10210;52.284;9.892;2022-10-01T09:23:33;13.60;99.90
20102;DHT22;10210;52.284;9.892;2022-10-01T09:26:09;13.70;99.90
20102;DHT22;10210;52.284;9.892;2022-10-01T09:28:38;13.70;99.90
20102;DHT22;10210;52.284;9.892;2022-10-01T09:31:10;13.70;99.90
20102;DHT22;10210;52.284;9.892;2022-10-01T09:33:50;13.70;99.90
20102;DHT22;10210;52.284;9.892;2022-10-01T09:39:30;13.70;99.90
20102;DHT22;10210;52.284;9.892;2022-10-01T09:42:03;13.80;99.90
20102;DHT22;10210;52.284;9.892;2022-10-01T09:44:31;13.80;99.90
20102;DHT22;10210;52.284;9.892;2022-10-01T09:46:58;13.80;99.90
20102;DHT22;10210;52.284;9.892;2022-10-01T09:49:40;13.90;99.90
20102;DHT22;10210;52.284;9.892;2022-10-01T09:52:21;13.90;99.90
20102;DHT22;10210;52.284;9.892;2022-10-01T09:54:52;14.00;99.90
20102;DHT22;10210;52.284;9.892;2022-10-01T09:57:32;14.00;99.90
20102;DHT22;10210;52.284;9.892;2022-10-01T10:00:18;14.00;99.90
20102;DHT22;10210;52.284;9.892;2022-10-01T10:02:48;14.10;99.90
20102;DHT22;10210;52.284;9.892;2022-10-01T10:05:42;14.10;99.90
20102;DHT22;10210;52.284;9.892;2022-10-01T10:08:29;14.10;99.90
20102;DHT22;10210;52.284;9.892;2022-10-01T10:11:09;14.20;99.90
20102;DHT22;10210;52.284;9.892;2022-10-01T10:13:38;14.20;99.90
20102;DHT22;10210;52.284;9.892;2022-10-01T10:16:08;14.30;99.90
20102;DHT22;10210;52.284;9.892;2022-10-01T10:18:47;14.30;99.90
20102;DHT22;10210;52.284;9.892;2022-10-01T10:21:20;14.40;99.90
20102;DHT22;10210;52.284;9.892;2022-10-01T10:23:58;14.40;99.90
20102;DHT22;10210;52.284;9.892;2022-10-01T10:26:35;14.40;99.90
20102;DHT22;10210;52.284;9.892;2022-10-01T10:29:05;14.50;99.90
20102;DHT22;10210;52.284;9.892;2022-10-01T10:31:40;14.60;99.90
20102;DHT22;10210;52.284;9.892;2022-10-01T10:34:14;14.60;99.90
20102;DHT22;10210;52.284;9.892;2022-10-01T10:36:44;14.70;99.90
20102;DHT22;10210;52.284;9.892;2022-10-01T10:39:19;14.70;99.90
20102;DHT22;10210;52.284;9.892;2022-10-01T10:41:51;14.80;99.90
20102;DHT22;10210;52.284;9.892;2022-10-01T10:44:20;14.80;99.90
20102;DHT22;10210;52.284;9.892;2022-10-01T10:46:51;14.90;99.90
20102;DHT22;10210;52.284;9.892;2022-10-01T10:49:26;14.90;99.90
20102;DHT22;10210;52.284;9.892;2022-10-01T10:52:00;15.00;99.90
20102;DHT22;10210;52.284;9.892;2022-10-01T10:54:33;15.10;99.90
20102;DHT22;10210;52.284;9.892;2022-10-01T11:00:02;15.20;99.90
20102;DHT22;10210;52.284;9.892;2022-10-01T11:02:30;15.20;99.90
20102;DHT22;10210;52.284;9.892;2022-10-01T11:05:03;15.30;99.90
20102;DHT22;10210;52.284;9.892;2022-10-01T11:07:44;15.40;99.90
20102;DHT22;10210;52.284;9.892;2022-10-01T11:10:38;15.50;99.90
20102;DHT22;10210;52.284;9.892;2022-10-01T11:24:58;15.80;99.90
20102;DHT22;10210;52.284;9.892;2022-10-01T11:27:53;15.80;99.90
20102;DHT22;10210;52.284;9.892;2022-10-01T11:30:46;15.80;99.90
20102;DHT22;10210;52.284;9.892;2022-10-01T11:33:25;15.90;99.90
20102;DHT22;10210;52.284;9.892;2022-10-01T11:36:08;15.90;99.90
20102;DHT22;10210;52.284;9.892;2022-10-01T11:41:29;15.90;99.90
20102;DHT22;10210;52.284;9.892;2022-10-01T11:44:11;16.00;99.90
20102;DHT22;10210;52.284;9.892;2022-10-01T11:49:52;16.10;99.90
20102;DHT22;10210;52.284;9.892;2022-10-01T11:56:06;16.20;99.90
20102;DHT22;10210;52.284;9.892;2022-10-01T11:59:15;16.40;99.90
20102;DHT22;10210;52.284;9.892;2022-10-01T12:05:00;16.50;99.90
20102;DHT22;10210;52.284;9.892;2022-10-01T12:07:40;16.60;99.90
20102;DHT22;10210;52.284;9.892;2022-10-01T12:21:26;16.90;99.90
20102;DHT22;10210;52.284;9.892;2022-10-01T12:24:04;17.00;99.90
20102;DHT22;10210;52.284;9.892;2022-10-01T12:27:01;17.00;99.90
20102;DHT22;10210;52.284;9.892;2022-10-01T12:30:06;17.10;99.90
20102;DHT22;10210;52.284;9.892;2022-10-01T12:33:02;17.10;99.90
20102;DHT22;10210;52.284;9.892;2022-10-01T12:35:37;17.20;99.90
20102;DHT22;10210;52.284;9.892;2022-10-01T12:44:18;17.20;99.90
20102;DHT22;10210;52.284;9.892;2022-10-01T12:50:13;17.40;99.90
20102;DHT22;10210;52.284;9.892;2022-10-01T12:53:17;17.40;99.90
20102;DHT22;10210;52.284;9.892;2022-10-01T13:01:32;17.60;99.90
20102;DHT22;10210;52.284;9.892;2022-10-01T13:11:02;17.80;99.90
20102;DHT22;10210;52.284;9.892;2022-10-01T13:13:47;17.90;99.90
20102;DHT22;10210;52.284;9.892;2022-10-01T13:16:40;18.00;99.90
20102;DHT22;10210;52.284;9.892;2022-10-01T13:19:15;18.00;99.90
20102;DHT22;10210;52.284;9.892;2022-10-01T13:21:54;18.20;99.90
20102;DHT22;10210;52.284;9.892;2022-10-01T13:24:39;18.20;99.90
20102;DHT22;10210;52.284;9.892;2022-10-01T13:27:26;18.30;99.90
20102;DHT22;10210;52.284;9.892;2022-10-01T13:30:11;18.40;99.90
20102;DHT22;10210;52.284;9.892;2022-10-01T13:37:57;18.60;99.90
20102;DHT22;10210;52.284;9.892;2022-10-01T13:40:33;18.60;99.90
20102;DHT22;10210;52.284;9.892;2022-10-01T13:43:06;18.60;99.90
20102;DHT22;10210;52.284;9.892;2022-10-01T13:45:46;18.60;99.90
20102;DHT22;10210;52.284;9.892;2022-10-01T13:51:01;18.70;99.90
20102;DHT22;10210;52.284;9.892;2022-10-01T13:53:31;18.70;99.90
20102;DHT22;10210;52.284;9.892;2022-10-01T13:56:00;18.70;99.90
20102;DHT22;10210;52.284;9.892;2022-10-01T13:58:35;18.70;99.90
20102;DHT22;10210;52.284;9.892;2022-10-01T14:01:46;18.80;99.90
20102;DHT22;10210;52.284;9.892;2022-10-01T14:04:40;18.70;99.90
20102;DHT22;10210;52.284;9.892;2022-10-01T14:07:14;18.70;99.90
20102;DHT22;10210;52.284;9.892;2022-10-01T14:09:46;18.70;99.90
20102;DHT22;10210;52.284;9.892;2022-10-01T14:12:29;18.70;99.90
20102;DHT22;10210;52.284;9.892;2022-10-01T14:15:23;18.70;99.90
20102;DHT22;10210;52.284;9.892;2022-10-01T14:18:21;18.70;99.90
20102;DHT22;10210;52.284;9.892;2022-10-01T14:26:22;17.90;99.90
20102;DHT22;10210;52.284;9.892;2022-10-01T14:36:58;16.50;99.90
20102;DHT22;10210;52.284;9.892;2022-10-01T14:39:26;16.30;99.90
20102;DHT22;10210;52.284;9.892;2022-10-01T14:41:55;16.00;99.90
20102;DHT22;10210;52.284;9.892;2022-10-01T14:44:27;15.90;99.90
20102;DHT22;10210;52.284;9.892;2022-10-01T14:47:21;15.70;99.90
20102;DHT22;10210;52.284;9.892;2022-10-01T14:49:49;15.60;99.90
20102;DHT22;10210;52.284;9.892;2022-10-01T14:52:22;15.50;99.90
20102;DHT22;10210;52.284;9.892;2022-10-01T14:54:58;15.40;99.90
20102;DHT22;10210;52.284;9.892;2022-10-01T14:57:34;15.40;99.90
20102;DHT22;10210;52.284;9.892;2022-10-01T15:00:06;15.30;99.90
20102;DHT22;10210;52.284;9.892;2022-10-01T15:02:45;15.30;99.90
20102;DHT22;10210;52.284;9.892;2022-10-01T15:05:31;15.30;99.90
20102;DHT22;10210;52.284;9.892;2022-10-01T15:08:13;15.30;99.90
20102;DHT22;10210;52.284;9.892;2022-10-01T15:10:49;15.20;99.90
20102;DHT22;10210;52.284;9.892;2022-10-01T15:13:27;15.20;99.90
20102;DHT22;10210;52.284;9.892;2022-10-01T15:15:56;15.30;99.90
20102;DHT22;10210;52.284;9.892;2022-10-01T15:18:23;15.30;99.90
20102;DHT22;10210;52.284;9.892;2022-10-01T15:20:52;15.30;99.90
20102;DHT22;10210;52.284;9.892;2022-10-01T15:23:22;15.30;99.90
20102;DHT22;10210;52.284;9.892;2022-10-01T15:25:50;15.30;99.90
20102;DHT22;10210;52.284;9.892;2022-10-01T15:28:35;15.30;99.90
20102;DHT22;10210;52.284;9.892;2022-10-01T15:31:03;15.40;99.90
20102;DHT22;10210;52.284;9.892;2022-10-01T15:33:33;15.50;99.90
20102;DHT22;10210;52.284;9.892;2022-10-01T15:36:04;15.50;99.90
20102;DHT22;10210;52.284;9.892;2022-10-01T15:38:32;15.60;99.90
20102;DHT22;10210;52.284;9.892;2022-10-01T15:41:01;15.70;99.90
20102;DHT22;10210;52.284;9.892;2022-10-01T15:43:38;15.70;99.90
20102;DHT22;10210;52.284;9.892;2022-10-01T15:49:17;15.80;99.90
20102;DHT22;10210;52.284;9.892;2022-10-01T15:51:51;15.90;99.90
20102;DHT22;10210;52.284;9.892;2022-10-01T15:54:41;15.90;99.90
20102;DHT22;10210;52.284;9.892;2022-10-01T15:57:19;16.00;99.90
20102;DHT22;10210;52.284;9.892;2022-10-01T15:59:49;15.90;99.90
20102;DHT22;10210;52.284;9.892;2022-10-01T16:02:23;16.00;99.90
20102;DHT22;10210;52.284;9.892;2022-10-01T16:04:51;15.90;99.90
20102;DHT22;10210;52.284;9.892;2022-10-01T16:07:24;16.00;99.90
20102;DHT22;10210;52.284;9.892;2022-10-01T16:09:57;15.90;99.90
20102;DHT22;10210;52.284;9.892;2022-10-01T16:12:28;16.00;99.90
20102;DHT22;10210;52.284;9.892;2022-10-01T16:15:05;15.90;99.90
20102;DHT22;10210;52.284;9.892;2022-10-01T16:17:55;15.90;99.90
20102;DHT22;10210;52.284;9.892;2022-10-01T16:20:33;15.90;99.90
20102;DHT22;10210;52.284;9.892;2022-10-01T16:23:32;15.90;99.90
20102;DHT22;10210;52.284;9.892;2022-10-01T16:26:03;15.80;99.90
20102;DHT22;10210;52.284;9.892;2022-10-01T16:28:32;15.90;99.90
20102;DHT22;10210;52.284;9.892;2022-10-01T16:31:00;15.80;99.90
20102;DHT22;10210;52.284;9.892;2022-10-01T16:33:28;15.80;99.90
20102;DHT22;10210;52.284;9.892;2022-10-01T16:36:08;15.80;99.90
20102;DHT22;10210;52.284;9.892;2022-10-01T16:38:35;15.70;99.90
20102;DHT22;10210;52.284;9.892;2022-10-01T16:41:01;15.80;99.90
20102;DHT22;10210;52.284;9.892;2022-10-01T16:43:29;15.70;99.90
20102;DHT22;10210;52.284;9.892;2022-10-01T16:45:56;15.70;99.90
20102;DHT22;10210;52.284;9.892;2022-10-01T16:48:26;15.70;99.90
20102;DHT22;10210;52.284;9.892;2022-10-01T16:50:55;15.70;99.90
20102;DHT22;10210;52.284;9.892;2022-10-01T16:53:24;15.60;99.90
20102;DHT22;10210;52.284;9.892;2022-10-01T16:55:51;15.60;99.90
20102;DHT22;10210;52.284;9.892;2022-10-01T16:58:17;15.60;99.90
20102;DHT22;10210;52.284;9.892;2022-10-01T17:00:44;15.60;99.90
20102;DHT22;10210;52.284;9.892;2022-10-01T17:03:18;15.50;99.90
20102;DHT22;10210;52.284;9.892;2022-10-01T17:05:45;15.60;99.90
20102;DHT22;10210;52.284;9.892;2022-10-01T17:08:11;15.60;99.90
20102;DHT22;10210;52.284;9.892;2022-10-01T17:10:53;15.60;99.90
20102;DHT22;10210;52.284;9.892;2022-10-01T17:13:24;15.50;99.90
20102;DHT22;10210;52.284;9.892;2022-10-01T17:15:50;15.60;99.90
20102;DHT22;10210;52.284;9.892;2022-10-01T17:18:17;15.50;99.90
20102;DHT22;10210;52.284;9.892;2022-10-01T17:20:44;15.50;99.90
20102;DHT22;10210;52.284;9.892;2022-10-01T17:23:11;15.50;99.90
20102;DHT22;10210;52.284;9.892;2022-10-01T17:25:39;15.60;99.90
20102;DHT22;10210;52.284;9.892;2022-10-01T17:28:10;15.60;99.90
20102;DHT22;10210;52.284;9.892;2022-10-01T17:30:43;15.60;99.90
20102;DHT22;10210;52.284;9.892;2022-10-01T17:33:12;15.60;99.90
20102;DHT22;10210;52.284;9.892;2022-10-01T17:35:43;15.60;99.90
20102;DHT22;10210;52.284;9.892;2022-10-01T17:38:11;15.60;99.90
20102;DHT22;10210;52.284;9.892;2022-10-01T17:40:41;15.60;99.90
20102;DHT22;10210;52.284;9.892;2022-10-01T17:43:10;15.70;99.90
20102;DHT22;10210;52.284;9.892;2022-10-01T17:45:37;15.70;99.90
20102;DHT22;10210;52.284;9.892;2022-10-01T17:48:03;15.70;99.90
20102;DHT22;10210;52.284;9.892;2022-10-01T17:50:29;15.70;99.90
20102;DHT22;10210;52.284;9.892;2022-10-01T17:52:55;15.70;99.90
20102;DHT22;10210;52.284;9.892;2022-10-01T17:55:23;15.70;99.90
20102;DHT22;10210;52.284;9.892;2022-10-01T17:57:50;15.70;99.90
20102;DHT22;10210;52.284;9.892;2022-10-01T18:00:16;15.70;99.90